sensor_id;sensor_type;location;lat;lon;timestamp;pressure;altitude;pressure_sealevel;temperature;humidity
32197;BME280;18697;42.770;23.400;2023-04-06T00:00:54;95453.78;;;1.92;74.02
32197;BME280;18697;42.770;23.400;2023-04-06T00:03:19;95456.84;;;1.98;74.10
32197;BME280;18697;42.770;23.400;2023-04-06T00:05:46;95456.38;;;2.03;73.95
32197;BME280;18697;42.770;23.400;2023-04-06T00:08:11;95448.63;;;1.98;73.67
32197;BME280;18697;42.770;23.400;2023-04-06T00:10:37;95450.09;;;2.06;73.57
32197;BME280;18697;42.770;23.400;2023-04-06T00:13:02;95437.97;;;2.04;73.79
32197;BME280;18697;42.770;23.400;2023-04-06T00:15:28;95432.50;;;2.04;73.86
32197;BME280;18697;42.770;23.400;2023-04-06T00:17:53;95434.16;;;1.97;73.86
32197;BME280;18697;42.770;23.400;2023-04-06T00:20:19;95420.09;;;1.95;74.02
32197;BME280;18697;42.770;23.400;2023-04-06T00:22:45;95424.34;;;2.00;73.90
32197;BME280;18697;42.770;23.400;2023-04-06T00:25:10;95429.75;;;2.04;73.83
32197;BME280;18697;42.770;23.400;2023-04-06T00:27:37;95419.31;;;1.95;73.89
32197;BME280;18697;42.770;23.400;2023-04-06T00:30:03;95422.38;;;2.01;74.40
32197;BME280;18697;42.770;23.400;2023-04-06T00:32:30;95412.50;;;2.07;74.50
32197;BME280;18697;42.770;23.400;2023-04-06T00:34:55;95420.00;;;2.03;74.58
32197;BME280;18697;42.770;23.400;2023-04-06T00:37:21;95409.00;;;2.06;74.78
32197;BME280;18697;42.770;23.400;2023-04-06T00:39:46;95407.44;;;2.05;74.62
32197;BME280;18697;42.770;23.400;2023-04-06T00:42:13;95404.97;;;2.14;74.52
32197;BME280;18697;42.770;23.400;2023-04-06T00:44:42;95405.78;;;2.11;74.45
32197;BME280;18697;42.770;23.400;2023-04-06T00:47:07;95404.53;;;2.16;74.66
32197;BME280;18697;42.770;23.400;2023-04-06T00:49:33;95402.22;;;2.14;74.24
32197;BME280;18697;42.770;23.400;2023-04-06T00:51:59;95404.59;;;2.12;74.55
32197;BME280;18697;42.770;23.400;2023-04-06T00:54:25;95403.03;;;2.11;74.34
32197;BME280;18697;42.770;23.400;2023-04-06T00:56:50;95396.38;;;2.12;74.56
32197;BME280;18697;42.770;23.400;2023-04-06T00:59:16;95407.16;;;2.23;74.67
32197;BME280;18697;42.770;23.400;2023-04-06T01:01:41;95404.75;;;2.25;74.14
32197;BME280;18697;42.770;23.400;2023-04-06T01:04:07;95400.91;;;2.22;74.08
32197;BME280;18697;42.770;23.400;2023-04-06T01:06:32;95396.63;;;2.21;73.93
32197;BME280;18697;42.770;23.400;2023-04-06T01:08:58;95396.13;;;2.26;73.78
32197;BME280;18697;42.770;23.400;2023-04-06T01:11:23;95393.03;;;2.24;73.65
32197;BME280;18697;42.770;23.400;2023-04-06T01:13:49;95390.22;;;2.28;73.96
32197;BME280;18697;42.770;23.400;2023-04-06T01:16:14;95385.53;;;2.28;74.07
32197;BME280;18697;42.770;23.400;2023-04-06T01:18:40;95386.78;;;2.24;74.07
32197;BME280;18697;42.770;23.400;2023-04-06T01:21:05;95381.84;;;2.15;74.07
32197;BME280;18697;42.770;23.400;2023-04-06T01:23:33;95376.59;;;2.01;74.44
32197;BME280;18697;42.770;23.400;2023-04-06T01:25:59;95383.59;;;2.02;74.88
32197;BME280;18697;42.770;23.400;2023-04-06T01:28:24;95375.75;;;2.04;75.18
32197;BME280;18697;42.770;23.400;2023-04-06T01:30:49;95375.03;;;2.00;74.83
32197;BME280;18697;42.770;23.400;2023-04-06T01:33:15;95373.84;;;2.01;75.35
32197;BME280;18697;42.770;23.400;2023-04-06T01:35:40;95370.63;;;2.06;75.39
32197;BME280;18697;42.770;23.400;2023-04-06T01:38:06;95370.31;;;2.01;75.44
32197;BME280;18697;42.770;23.400;2023-04-06T01:40:31;95377.66;;;2.07;75.72
32197;BME280;18697;42.770;23.400;2023-04-06T01:42:56;95367.19;;;2.02;75.95
32197;BME280;18697;42.770;23.400;2023-04-06T01:45:22;95361.69;;;2.02;75.56
32197;BME280;18697;42.770;23.400;2023-04-06T01:47:47;95362.09;;;2.01;75.69
32197;BME280;18697;42.770;23.400;2023-04-06T01:50:12;95357.50;;;1.94;75.71
32197;BME280;18697;42.770;23.400;2023-04-06T01:52:38;95362.16;;;1.97;76.07
32197;BME280;18697;42.770;23.400;2023-04-06T01:55:03;95367.28;;;1.95;76.40
32197;BME280;18697;42.770;23.400;2023-04-06T01:57:29;95369.03;;;1.82;76.39
32197;BME280;18697;42.770;23.400;2023-04-06T01:59:54;95362.38;;;1.83;76.38
32197;BME280;18697;42.770;23.400;2023-04-06T02:02:20;95358.53;;;1.77;76.66
32197;BME280;18697;42.770;23.400;2023-04-06T02:04:45;95365.53;;;1.81;76.82
32197;BME280;18697;42.770;23.400;2023-04-06T02:07:11;95357.81;;;1.73;76.60
32197;BME280;18697;42.770;23.400;2023-04-06T02:09:36;95358.34;;;1.64;76.87
32197;BME280;18697;42.770;23.400;2023-04-06T02:12:01;95362.31;;;1.59;77.11
32197;BME280;18697;42.770;23.400;2023-04-06T02:14:27;95355.66;;;1.60;77.42
32197;BME280;18697;42.770;23.400;2023-04-06T02:16:53;95353.63;;;1.64;77.61
32197;BME280;18697;42.770;23.400;2023-04-06T02:19:18;95353.16;;;1.70;77.56
32197;BME280;18697;42.770;23.400;2023-04-06T02:21:43;95351.22;;;1.70;77.40
32197;BME280;18697;42.770;23.400;2023-04-06T02:24:09;95360.91;;;1.75;77.07
32197;BME280;18697;42.770;23.400;2023-04-06T02:26:35;95352.34;;;1.73;77.17
32197;BME280;18697;42.770;23.400;2023-04-06T02:29:00;95343.09;;;1.63;76.97
32197;BME280;18697;42.770;23.400;2023-04-06T02:31:28;95350.91;;;1.64;77.32
32197;BME280;18697;42.770;23.400;2023-04-06T02:33:53;95358.75;;;1.62;77.30
32197;BME280;18697;42.770;23.400;2023-04-06T02:36:19;95356.41;;;1.61;77.57
32197;BME280;18697;42.770;23.400;2023-04-06T02:38:44;95351.34;;;1.59;77.84
32197;BME280;18697;42.770;23.400;2023-04-06T02:41:10;95355.75;;;1.53;77.79
32197;BME280;18697;42.770;23.400;2023-04-06T02:43:35;95354.81;;;1.63;77.99
32197;BME280;18697;42.770;23.400;2023-04-06T02:46:01;95353.72;;;1.57;78.01
32197;BME280;18697;42.770;23.400;2023-04-06T02:48:26;95352.03;;;1.67;77.83
32197;BME280;18697;42.770;23.400;2023-04-06T02:50:51;95351.72;;;1.61;77.76
32197;BME280;18697;42.770;23.400;2023-04-06T02:53:17;95350.16;;;1.60;77.45
32197;BME280;18697;42.770;23.400;2023-04-06T02:55:42;95358.34;;;1.64;77.49
32197;BME280;18697;42.770;23.400;2023-04-06T02:58:08;95355.69;;;1.57;77.23
32197;BME280;18697;42.770;23.400;2023-04-06T03:00:33;95359.56;;;1.59;77.55
32197;BME280;18697;42.770;23.400;2023-04-06T03:02:58;95355.69;;;1.57;77.37
32197;BME280;18697;42.770;23.400;2023-04-06T03:05:24;95354.56;;;1.54;77.43
32197;BME280;18697;42.770;23.400;2023-04-06T03:07:49;95365.88;;;1.56;77.37
32197;BME280;18697;42.770;23.400;2023-04-06T03:10:15;95357.28;;;1.54;77.32
32197;BME280;18697;42.770;23.400;2023-04-06T03:12:40;95357.19;;;1.61;77.45
32197;BME280;18697;42.770;23.400;2023-04-06T03:15:07;95361.84;;;1.64;77.68
32197;BME280;18697;42.770;23.400;2023-04-06T03:17:33;95366.03;;;1.73;77.28
32197;BME280;18697;42.770;23.400;2023-04-06T03:19:58;95358.91;;;1.79;77.36
32197;BME280;18697;42.770;23.400;2023-04-06T03:22:23;95372.19;;;1.80;77.40
32197;BME280;18697;42.770;23.400;2023-04-06T03:24:49;95367.06;;;1.82;77.23
32197;BME280;18697;42.770;23.400;2023-04-06T03:27:14;95365.09;;;1.83;77.24
32197;BME280;18697;42.770;23.400;2023-04-06T03:29:40;95364.22;;;1.89;77.43
32197;BME280;18697;42.770;23.400;2023-04-06T03:32:05;95357.50;;;1.94;77.27
32197;BME280;18697;42.770;23.400;2023-04-06T03:34:31;95357.03;;;1.99;76.99
32197;BME280;18697;42.770;23.400;2023-04-06T03:36:56;95352.41;;;1.96;76.83
32197;BME280;18697;42.770;23.400;2023-04-06T03:39:21;95352.41;;;1.96;77.18
32197;BME280;18697;42.770;23.400;2023-04-06T03:41:47;95348.09;;;1.95;76.90
32197;BME280;18697;42.770;23.400;2023-04-06T03:44:12;95353.53;;;1.98;76.98
32197;BME280;18697;42.770;23.400;2023-04-06T03:46:38;95348.47;;;1.97;77.09
32197;BME280;18697;42.770;23.400;2023-04-06T03:49:03;95356.69;;;1.97;77.10
32197;BME280;18697;42.770;23.400;2023-04-06T03:51:28;95353.59;;;1.95;77.28
32197;BME280;18697;42.770;23.400;2023-04-06T03:53:54;95353.16;;;1.96;76.94
32197;BME280;18697;42.770;23.400;2023-04-06T03:56:19;95357.03;;;1.99;76.78
32197;BME280;18697;42.770;23.400;2023-04-06T03:58:45;95362.88;;;2.01;77.03
32197;BME280;18697;42.770;23.400;2023-04-06T04:01:14;95349.91;;;2.05;77.00
32197;BME280;18697;42.770;23.400;2023-04-06T04:03:40;95358.59;;;2.00;77.12
32197;BME280;18697;42.770;23.400;2023-04-06T04:06:05;95355.84;;;2.00;76.90
32197;BME280;18697;42.770;23.400;2023-04-06T04:08:31;95350.38;;;2.00;76.98
32197;BME280;18697;42.770;23.400;2023-04-06T04:10:56;95348.00;;;2.02;76.81
32197;BME280;18697;42.770;23.400;2023-04-06T04:13:21;95353.63;;;1.91;76.88
32197;BME280;18697;42.770;23.400;2023-04-06T04:15:47;95357.56;;;1.90;77.10
32197;BME280;18697;42.770;23.400;2023-04-06T04:18:13;95350.59;;;1.86;77.21
32197;BME280;18697;42.770;23.400;2023-04-06T04:20:38;95353.16;;;1.96;77.67
32197;BME280;18697;42.770;23.400;2023-04-06T04:23:04;95354.41;;;1.92;77.18
32197;BME280;18697;42.770;23.400;2023-04-06T04:25:29;95355.53;;;1.94;77.02
32197;BME280;18697;42.770;23.400;2023-04-06T04:27:55;95350.91;;;1.91;76.65
32197;BME280;18697;42.770;23.400;2023-04-06T04:30:20;95360.19;;;1.97;77.10
32197;BME280;18697;42.770;23.400;2023-04-06T04:32:46;95351.56;;;1.99;77.09
32197;BME280;18697;42.770;23.400;2023-04-06T04:35:12;95355.91;;;1.96;76.99
32197;BME280;18697;42.770;23.400;2023-04-06T04:37:40;95348.47;;;1.97;76.95
32197;BME280;18697;42.770;23.400;2023-04-06T04:40:06;95355.84;;;2.00;76.96
32197;BME280;18697;42.770;23.400;2023-04-06T04:42:32;95360.97;;;1.98;76.64
32197;BME280;18697;42.770;23.400;2023-04-06T04:44:57;95362.47;;;2.03;76.77
32197;BME280;18697;42.770;23.400;2023-04-06T04:47:22;95357.41;;;2.01;76.46
32197;BME280;18697;42.770;23.400;2023-04-06T04:49:48;95357.28;;;2.08;76.55
32197;BME280;18697;42.770;23.400;2023-04-06T04:52:13;95353.84;;;2.04;76.36
32197;BME280;18697;42.770;23.400;2023-04-06T04:54:39;95351.50;;;2.03;76.50
32197;BME280;18697;42.770;23.400;2023-04-06T04:57:06;95356.69;;;1.97;76.72
32197;BME280;18697;42.770;23.400;2023-04-06T04:59:31;95353.13;;;2.00;76.68
32197;BME280;18697;42.770;23.400;2023-04-06T05:01:57;95351.88;;;2.05;76.79
32197;BME280;18697;42.770;23.400;2023-04-06T05:04:22;95351.50;;;2.03;76.55
32197;BME280;18697;42.770;23.400;2023-04-06T05:06:48;95345.84;;;1.90;76.12
32197;BME280;18697;42.770;23.400;2023-04-06T05:09:14;95351.56;;;1.99;76.58
32197;BME280;18697;42.770;23.400;2023-04-06T05:11:39;95353.47;;;2.02;76.49
32197;BME280;18697;42.770;23.400;2023-04-06T05:14:04;95348.81;;;1.99;76.14
32197;BME280;18697;42.770;23.400;2023-04-06T05:16:32;95344.53;;;1.98;76.17
32197;BME280;18697;42.770;23.400;2023-04-06T05:18:57;95347.38;;;1.91;75.88
32197;BME280;18697;42.770;23.400;2023-04-06T05:21:23;95341.50;;;1.92;76.59
32197;BME280;18697;42.770;23.400;2023-04-06T05:23:48;95350.47;;;1.93;76.49
32197;BME280;18697;42.770;23.400;2023-04-06T05:26:13;95337.88;;;1.99;76.50
32197;BME280;18697;42.770;23.400;2023-04-06T05:28:39;95332.41;;;1.99;76.54
32197;BME280;18697;42.770;23.400;2023-04-06T05:31:04;95331.72;;;1.91;76.23
32197;BME280;18697;42.770;23.400;2023-04-06T05:33:30;95322.63;;;1.98;76.30
32197;BME280;18697;42.770;23.400;2023-04-06T05:35:56;95331.50;;;2.06;76.45
32197;BME280;18697;42.770;23.400;2023-04-06T05:38:21;95335.38;;;2.08;75.89
32197;BME280;18697;42.770;23.400;2023-04-06T05:40:47;95336.88;;;2.13;75.73
32197;BME280;18697;42.770;23.400;2023-04-06T05:43:12;95328.25;;;2.14;76.28
32197;BME280;18697;42.770;23.400;2023-04-06T05:45:37;95330.16;;;2.17;76.28
32197;BME280;18697;42.770;23.400;2023-04-06T05:48:03;95325.72;;;2.23;76.48
32197;BME280;18697;42.770;23.400;2023-04-06T05:50:28;95332.63;;;2.31;76.96
32197;BME280;18697;42.770;23.400;2023-04-06T05:52:54;95317.66;;;2.36;76.34
32197;BME280;18697;42.770;23.400;2023-04-06T05:55:19;95321.91;;;2.41;76.75
32197;BME280;18697;42.770;23.400;2023-04-06T05:57:45;95320.50;;;2.52;77.14
32197;BME280;18697;42.770;23.400;2023-04-06T06:00:11;95319.56;;;2.62;76.27
32197;BME280;18697;42.770;23.400;2023-04-06T06:02:36;95317.94;;;2.65;75.27
32197;BME280;18697;42.770;23.400;2023-04-06T06:05:02;95319.34;;;2.73;75.18
32197;BME280;18697;42.770;23.400;2023-04-06T06:07:27;95319.84;;;2.68;74.80
32197;BME280;18697;42.770;23.400;2023-04-06T06:09:56;95326.09;;;2.69;75.15
32197;BME280;18697;42.770;23.400;2023-04-06T06:12:22;95316.41;;;2.64;75.24
32197;BME280;18697;42.770;23.400;2023-04-06T06:14:47;95314.13;;;2.59;75.05
32197;BME280;18697;42.770;23.400;2023-04-06T06:17:12;95309.50;;;2.56;75.24
32197;BME280;18697;42.770;23.400;2023-04-06T06:19:40;95321.53;;;2.62;75.62
32197;BME280;18697;42.770;23.400;2023-04-06T06:22:05;95325.31;;;2.68;75.27
32197;BME280;18697;42.770;23.400;2023-04-06T06:24:31;95316.91;;;2.79;75.79
32197;BME280;18697;42.770;23.400;2023-04-06T06:26:56;95320.41;;;2.79;74.98
32197;BME280;18697;42.770;23.400;2023-04-06T06:29:22;95319.28;;;2.77;74.87
32197;BME280;18697;42.770;23.400;2023-04-06T06:31:48;95324.00;;;2.76;74.60
32197;BME280;18697;42.770;23.400;2023-04-06T06:34:14;95334.84;;;2.83;74.68
32197;BME280;18697;42.770;23.400;2023-04-06T06:36:40;95323.81;;;2.87;75.10
32197;BME280;18697;42.770;23.400;2023-04-06T06:39:05;95332.44;;;2.85;74.77
32197;BME280;18697;42.770;23.400;2023-04-06T06:41:30;95334.00;;;2.86;75.13
32197;BME280;18697;42.770;23.400;2023-04-06T06:43:56;95330.84;;;2.88;74.47
32197;BME280;18697;42.770;23.400;2023-04-06T06:46:21;95328.38;;;2.93;74.62
32197;BME280;18697;42.770;23.400;2023-04-06T06:48:46;95330.47;;;2.86;74.08
32197;BME280;18697;42.770;23.400;2023-04-06T06:51:12;95332.03;;;2.87;74.60
32197;BME280;18697;42.770;23.400;2023-04-06T06:53:37;95332.88;;;2.84;74.21
32197;BME280;18697;42.770;23.400;2023-04-06T06:56:03;95345.47;;;2.81;74.58
32197;BME280;18697;42.770;23.400;2023-04-06T06:58:28;95338.06;;;2.78;74.21
32197;BME280;18697;42.770;23.400;2023-04-06T07:00:58;95346.59;;;2.84;74.04
32197;BME280;18697;42.770;23.400;2023-04-06T07:03:23;95345.81;;;2.83;74.40
32197;BME280;18697;42.770;23.400;2023-04-06T07:05:49;95335.19;;;2.85;74.55
32197;BME280;18697;42.770;23.400;2023-04-06T07:08:19;95341.75;;;2.91;74.05
32197;BME280;18697;42.770;23.400;2023-04-06T07:10:45;95340.91;;;2.94;74.51
32197;BME280;18697;42.770;23.400;2023-04-06T07:13:10;95340.53;;;2.92;73.90
32197;BME280;18697;42.770;23.400;2023-04-06T07:15:36;95330.47;;;2.86;73.64
32197;BME280;18697;42.770;23.400;2023-04-06T07:18:02;95344.13;;;2.89;73.11
32197;BME280;18697;42.770;23.400;2023-04-06T07:20:27;95327.03;;;2.82;73.06
32197;BME280;18697;42.770;23.400;2023-04-06T07:22:53;95334.72;;;2.90;73.85
32197;BME280;18697;42.770;23.400;2023-04-06T07:25:18;95336.31;;;2.88;73.24
32197;BME280;18697;42.770;23.400;2023-04-06T07:27:44;95332.44;;;2.85;72.45
32197;BME280;18697;42.770;23.400;2023-04-06T07:30:10;95327.81;;;2.82;72.07
32197;BME280;18697;42.770;23.400;2023-04-06T07:32:35;95329.28;;;2.87;72.43
32197;BME280;18697;42.770;23.400;2023-04-06T07:35:01;95318.94;;;2.94;72.46
32197;BME280;18697;42.770;23.400;2023-04-06T07:37:26;95321.81;;;3.07;72.84
32197;BME280;18697;42.770;23.400;2023-04-06T07:39:52;95324.34;;;3.18;73.01
32197;BME280;18697;42.770;23.400;2023-04-06T07:42:17;95326.78;;;3.32;71.46
32197;BME280;18697;42.770;23.400;2023-04-06T07:44:42;95323.91;;;3.39;71.10
32197;BME280;18697;42.770;23.400;2023-04-06T07:47:08;95320.38;;;3.39;70.90
32197;BME280;18697;42.770;23.400;2023-04-06T07:49:33;95322.34;;;3.38;69.77
32197;BME280;18697;42.770;23.400;2023-04-06T07:51:59;95322.78;;;3.37;69.58
32197;BME280;18697;42.770;23.400;2023-04-06T07:54:24;95316.94;;;3.35;69.58
32197;BME280;18697;42.770;23.400;2023-04-06T07:56:50;95318.41;;;3.39;69.90
32197;BME280;18697;42.770;23.400;2023-04-06T07:59:15;95327.50;;;3.36;69.06
32197;BME280;18697;42.770;23.400;2023-04-06T08:01:40;95325.25;;;3.31;69.23
32197;BME280;18697;42.770;23.400;2023-04-06T08:04:06;95327.00;;;3.41;70.30
32197;BME280;18697;42.770;23.400;2023-04-06T08:06:31;95325.44;;;3.40;69.20
32197;BME280;18697;42.770;23.400;2023-04-06T08:08:56;95333.75;;;3.37;68.69
32197;BME280;18697;42.770;23.400;2023-04-06T08:11:22;95319.38;;;3.49;68.85
32197;BME280;18697;42.770;23.400;2023-04-06T08:13:47;95320.16;;;3.49;67.67
32197;BME280;18697;42.770;23.400;2023-04-06T08:16:13;95314.16;;;3.54;68.23
32197;BME280;18697;42.770;23.400;2023-04-06T08:18:38;95318.81;;;3.57;67.76
32197;BME280;18697;42.770;23.400;2023-04-06T08:21:04;95317.25;;;3.56;68.03
32197;BME280;18697;42.770;23.400;2023-04-06T08:23:29;95325.69;;;3.66;67.54
32197;BME280;18697;42.770;23.400;2023-04-06T08:25:55;95321.97;;;3.72;67.81
32197;BME280;18697;42.770;23.400;2023-04-06T08:28:21;95317.72;;;3.87;68.28
32197;BME280;18697;42.770;23.400;2023-04-06T08:30:46;95330.44;;;3.97;67.47
32197;BME280;18697;42.770;23.400;2023-04-06T08:33:12;95331.56;;;4.00;66.42
32197;BME280;18697;42.770;23.400;2023-04-06T08:35:37;95335.78;;;4.05;66.88
32197;BME280;18697;42.770;23.400;2023-04-06T08:38:03;95336.28;;;4.00;66.36
32197;BME280;18697;42.770;23.400;2023-04-06T08:40:28;95331.47;;;4.04;66.95
32197;BME280;18697;42.770;23.400;2023-04-06T08:42:59;95325.22;;;4.03;68.07
32197;BME280;18697;42.770;23.400;2023-04-06T08:45:24;95321.16;;;4.08;65.54
32197;BME280;18697;42.770;23.400;2023-04-06T08:47:52;95324.94;;;4.14;65.55
32197;BME280;18697;42.770;23.400;2023-04-06T08:50:18;95332.09;;;4.11;65.80
32197;BME280;18697;42.770;23.400;2023-04-06T08:52:49;95317.75;;;4.20;65.69
32197;BME280;18697;42.770;23.400;2023-04-06T08:55:15;95322.56;;;4.32;65.80
32197;BME280;18697;42.770;23.400;2023-04-06T08:57:41;95322.47;;;4.36;65.65
32197;BME280;18697;42.770;23.400;2023-04-06T09:00:09;95324.00;;;4.37;64.81
32197;BME280;18697;42.770;23.400;2023-04-06T09:02:38;95330.78;;;4.32;64.13
32197;BME280;18697;42.770;23.400;2023-04-06T09:05:06;95323.66;;;4.35;64.56
32197;BME280;18697;42.770;23.400;2023-04-06T09:07:32;95328.13;;;4.45;65.01
32197;BME280;18697;42.770;23.400;2023-04-06T09:09:58;95327.44;;;4.41;63.66
32197;BME280;18697;42.770;23.400;2023-04-06T09:12:27;95328.72;;;4.36;64.34
32197;BME280;18697;42.770;23.400;2023-04-06T09:14:54;95331.66;;;4.29;63.63
32197;BME280;18697;42.770;23.400;2023-04-06T09:19:47;95320.41;;;4.40;63.67
32197;BME280;18697;42.770;23.400;2023-04-06T09:22:13;95325.91;;;4.40;64.31
32197;BME280;18697;42.770;23.400;2023-04-06T09:24:46;95323.72;;;4.47;64.75
32197;BME280;18697;42.770;23.400;2023-04-06T09:27:12;95314.41;;;4.57;64.21
32197;BME280;18697;42.770;23.400;2023-04-06T09:29:38;95311.56;;;4.61;63.61
32197;BME280;18697;42.770;23.400;2023-04-06T09:32:06;95322.56;;;4.61;62.53
32197;BME280;18697;42.770;23.400;2023-04-06T09:34:33;95317.50;;;4.59;62.82
32197;BME280;18697;42.770;23.400;2023-04-06T09:36:58;95316.31;;;4.60;63.47
32197;BME280;18697;42.770;23.400;2023-04-06T09:39:24;95317.41;;;4.63;64.04
32197;BME280;18697;42.770;23.400;2023-04-06T09:41:51;95318.38;;;4.56;63.10
32197;BME280;18697;42.770;23.400;2023-04-06T09:44:17;95324.56;;;4.60;63.22
32197;BME280;18697;42.770;23.400;2023-04-06T09:46:44;95323.25;;;4.65;63.43
32197;BME280;18697;42.770;23.400;2023-04-06T09:49:11;95322.22;;;4.75;63.41
32197;BME280;18697;42.770;23.400;2023-04-06T09:51:39;95319.03;;;4.77;62.42
32197;BME280;18697;42.770;23.400;2023-04-06T09:54:06;95327.09;;;4.84;62.39
32197;BME280;18697;42.770;23.400;2023-04-06T09:57:31;95324.19;;;5.04;63.15
32197;BME280;18697;42.770;23.400;2023-04-06T10:05:33;95327.84;;;5.68;61.59
32197;BME280;18697;42.770;23.400;2023-04-06T10:08:06;95315.19;;;5.70;59.61
32197;BME280;18697;42.770;23.400;2023-04-06T10:10:34;95310.25;;;5.78;60.08
32197;BME280;18697;42.770;23.400;2023-04-06T10:12:59;95314.31;;;5.73;59.61
32197;BME280;18697;42.770;23.400;2023-04-06T10:15:29;95303.41;;;5.70;60.43
32197;BME280;18697;42.770;23.400;2023-04-06T10:17:59;95314.97;;;5.77;59.45
32197;BME280;18697;42.770;23.400;2023-04-06T10:23:29;95303.63;;;5.88;58.56
32197;BME280;18697;42.770;23.400;2023-04-06T10:25:57;95300.88;;;5.88;58.48
32197;BME280;18697;42.770;23.400;2023-04-06T10:28:24;95298.56;;;5.99;59.00
32197;BME280;18697;42.770;23.400;2023-04-06T10:30:57;95294.47;;;6.04;58.88
32197;BME280;18697;42.770;23.400;2023-04-06T10:33:22;95285.66;;;6.09;59.42
32197;BME280;18697;42.770;23.400;2023-04-06T10:35:48;95284.53;;;6.19;57.80
32197;BME280;18697;42.770;23.400;2023-04-06T10:38:13;95283.50;;;6.38;57.88
32197;BME280;18697;42.770;23.400;2023-04-06T10:40:41;95282.78;;;6.59;57.80
32197;BME280;18697;42.770;23.400;2023-04-06T10:43:13;95274.97;;;6.80;56.24
32197;BME280;18697;42.770;23.400;2023-04-06T10:45:39;95281.59;;;6.82;56.38
32197;BME280;18697;42.770;23.400;2023-04-06T10:48:16;95277.59;;;6.83;57.12
32197;BME280;18697;42.770;23.400;2023-04-06T10:50:46;95278.00;;;6.95;56.19
32197;BME280;18697;42.770;23.400;2023-04-06T10:53:19;95276.84;;;7.27;55.64
32197;BME280;18697;42.770;23.400;2023-04-06T10:55:46;95272.03;;;7.18;54.12
32197;BME280;18697;42.770;23.400;2023-04-06T10:58:12;95274.28;;;7.32;55.08
32197;BME280;18697;42.770;23.400;2023-04-06T11:00:47;95270.50;;;7.48;54.76
32197;BME280;18697;42.770;23.400;2023-04-06T11:03:13;95266.38;;;7.52;53.17
32197;BME280;18697;42.770;23.400;2023-04-06T11:05:46;95264.03;;;7.73;54.53
32197;BME280;18697;42.770;23.400;2023-04-06T11:08:31;95264.03;;;7.73;53.00
32197;BME280;18697;42.770;23.400;2023-04-06T11:11:10;95252.53;;;7.74;53.92
32197;BME280;18697;42.770;23.400;2023-04-06T11:13:43;95251.03;;;7.82;52.45
32197;BME280;18697;42.770;23.400;2023-04-06T11:16:29;95262.31;;;8.06;53.68
32197;BME280;18697;42.770;23.400;2023-04-06T11:19:03;95246.03;;;8.08;51.67
32197;BME280;18697;42.770;23.400;2023-04-06T11:29:15;95240.81;;;8.10;51.65
32197;BME280;18697;42.770;23.400;2023-04-06T11:31:44;95231.69;;;8.50;52.55
32197;BME280;18697;42.770;23.400;2023-04-06T11:34:18;95239.38;;;8.73;52.03
32197;BME280;18697;42.770;23.400;2023-04-06T11:36:45;95232.31;;;8.91;50.44
32197;BME280;18697;42.770;23.400;2023-04-06T11:39:12;95224.16;;;8.78;48.40
32197;BME280;18697;42.770;23.400;2023-04-06T11:41:38;95235.38;;;8.74;49.79
32197;BME280;18697;42.770;23.400;2023-04-06T11:44:05;95238.75;;;8.51;49.45
32197;BME280;18697;42.770;23.400;2023-04-06T11:46:31;95231.03;;;8.37;51.45
32197;BME280;18697;42.770;23.400;2023-04-06T11:49:01;95242.06;;;8.28;49.66
32197;BME280;18697;42.770;23.400;2023-04-06T11:51:27;95242.22;;;8.15;51.13
32197;BME280;18697;42.770;23.400;2023-04-06T11:53:53;95238.06;;;8.10;51.07
32197;BME280;18697;42.770;23.400;2023-04-06T11:56:29;95230.97;;;8.00;50.42
32197;BME280;18697;42.770;23.400;2023-04-06T11:58:56;95234.34;;;8.04;51.33
32197;BME280;18697;42.770;23.400;2023-04-06T12:01:23;95236.50;;;8.00;51.52
32197;BME280;18697;42.770;23.400;2023-04-06T12:03:49;95220.84;;;8.24;53.00
32197;BME280;18697;42.770;23.400;2023-04-06T12:06:15;95219.38;;;8.42;50.31
32197;BME280;18697;42.770;23.400;2023-04-06T12:08:40;95225.53;;;8.46;51.58
32197;BME280;18697;42.770;23.400;2023-04-06T12:11:06;95231.53;;;8.63;50.16
32197;BME280;18697;42.770;23.400;2023-04-06T12:13:32;95220.94;;;8.70;49.67
32197;BME280;18697;42.770;23.400;2023-04-06T12:15:57;95221.38;;;8.69;49.62
32197;BME280;18697;42.770;23.400;2023-04-06T12:18:23;95220.13;;;8.42;48.66
32197;BME280;18697;42.770;23.400;2023-04-06T12:20:48;95210.41;;;8.29;49.77
32197;BME280;18697;42.770;23.400;2023-04-06T12:23:13;95208.00;;;8.40;50.92
32197;BME280;18697;42.770;23.400;2023-04-06T12:25:42;95209.38;;;8.35;49.72
32197;BME280;18697;42.770;23.400;2023-04-06T12:28:08;95213.97;;;8.38;49.81
32197;BME280;18697;42.770;23.400;2023-04-06T12:30:37;95216.47;;;8.54;50.97
32197;BME280;18697;42.770;23.400;2023-04-06T12:33:02;95211.31;;;8.25;49.11
32197;BME280;18697;42.770;23.400;2023-04-06T12:35:28;95213.81;;;8.33;50.57
32197;BME280;18697;42.770;23.400;2023-04-06T12:37:53;95213.16;;;8.29;49.82
32197;BME280;18697;42.770;23.400;2023-04-06T12:40:19;95204.41;;;8.21;49.99
32197;BME280;18697;42.770;23.400;2023-04-06T12:42:45;95199.63;;;8.21;48.72
32197;BME280;18697;42.770;23.400;2023-04-06T12:45:11;95198.56;;;8.28;50.89
32197;BME280;18697;42.770;23.400;2023-04-06T12:47:37;95203.53;;;8.42;49.99
32197;BME280;18697;42.770;23.400;2023-04-06T12:50:04;95188.16;;;8.50;49.64
32197;BME280;18697;42.770;23.400;2023-04-06T12:52:30;95202.16;;;8.47;48.39
32197;BME280;18697;42.770;23.400;2023-04-06T12:54:57;95191.09;;;8.56;49.28
32197;BME280;18697;42.770;23.400;2023-04-06T12:57:23;95194.78;;;8.62;49.78
32197;BME280;18697;42.770;23.400;2023-04-06T12:59:48;95195.69;;;8.68;49.16
32197;BME280;18697;42.770;23.400;2023-04-06T13:02:14;95190.78;;;8.45;46.81
32197;BME280;18697;42.770;23.400;2023-04-06T13:04:39;95191.50;;;8.27;47.95
32197;BME280;18697;42.770;23.400;2023-04-06T13:07:05;95191.47;;;8.18;48.43
32197;BME280;18697;42.770;23.400;2023-04-06T13:09:30;95181.50;;;8.20;48.80
32197;BME280;18697;42.770;23.400;2023-04-06T13:11:56;95177.38;;;8.16;48.28
32197;BME280;18697;42.770;23.400;2023-04-06T13:14:21;95184.28;;;8.11;48.55